Time;durP1;ratioP1;P1;durP2;ratioP2;P2;SDS_P1;SDS_P2;PMS_P1;PMS_P2;Temp;Humidity;BMP_temperature;BMP_pressure;BME280_temperature;BME280_humidity;BME280_pressure;Samples;Min_cycle;Max_cycle;Signal;HPM_P1;HPM_P2
2023/02/27 03:00:31;;;;;;;8.70;8.20;;;-2.40;99.90;;;;;;6069391;23;20371;-79
2023/02/27 03:03:06;;;;;;;9.20;8.50;;;-2.40;99.90;;;;;;4946878;29;20462;-79
2023/02/27 03:05:38;;;;;;;9.50;8.80;;;-2.40;99.90;;;;;;4956331;28;20458;-80
2023/02/27 03:08:09;;;;;;;9.00;8.40;;;-2.40;99.90;;;;;;4974376;28;20537;-79
2023/02/27 03:10:40;;;;;;;8.90;8.20;;;-2.50;99.90;;;;;;4955507;28;21061;-81
2023/02/27 03:13:12;;;;;;;9.43;8.73;;;-2.50;99.90;;;;;;4959104;28;20461;-80
2023/02/27 03:15:44;;;;;;;8.97;8.37;;;-2.50;99.90;;;;;;4958008;29;20474;-81
2023/02/27 03:18:19;;;;;;;9.77;8.90;;;-2.50;99.90;;;;;;4956239;29;20971;-81
2023/02/27 03:20:50;;;;;;;9.80;9.00;;;-2.50;99.90;;;;;;4958857;28;20473;-80
2023/02/27 03:23:22;;;;;;;9.37;8.77;;;-2.50;99.90;;;;;;4958670;28;20442;-79
2023/02/27 03:25:51;;;;;;;9.73;9.03;;;-2.50;99.90;;;;;;4958520;28;20474;-80
2023/02/27 03:28:23;;;;;;;9.20;8.60;;;-2.50;99.90;;;;;;4960680;29;20546;-81
2023/02/27 03:31:00;;;;;;;10.00;9.07;;;-2.50;99.90;;;;;;4962636;28;20474;-79
2023/02/27 03:33:32;;;;;;;8.43;7.93;;;-2.60;99.90;;;;;;4958312;29;20486;-81
2023/02/27 03:36:05;;;;;;;9.43;8.80;;;-2.60;99.90;;;;;;4963887;29;20473;-80
2023/02/27 03:38:38;;;;;;;9.53;8.73;;;-2.50;99.90;;;;;;4959042;29;20493;-80
2023/02/27 03:41:12;;;;;;;9.17;8.47;;;-2.60;99.90;;;;;;4955697;28;20471;-87
2023/02/27 03:43:58;;;;;;;9.13;8.60;;;-2.60;99.90;;;;;;4954732;29;20450;-80
2023/02/27 03:46:28;;;;;;;9.03;8.43;;;-2.60;99.90;;;;;;4955676;29;20834;-81
2023/02/27 03:48:55;;;;;;;9.30;8.70;;;-2.60;99.90;;;;;;4960838;29;20446;-80
2023/02/27 03:51:23;;;;;;;9.40;8.80;;;-2.60;99.90;;;;;;4957621;29;20540;-81
2023/02/27 03:53:57;;;;;;;9.37;8.70;;;-2.60;99.90;;;;;;4943946;29;20537;-83
2023/02/27 03:56:28;;;;;;;10.00;9.30;;;-2.70;99.90;;;;;;4939871;29;20479;-85
2023/02/27 03:58:56;;;;;;;10.50;9.73;;;-2.60;99.90;;;;;;4935021;29;20895;-84
2023/02/27 04:01:23;;;;;;;9.90;9.00;;;-2.70;99.90;;;;;;4939670;29;20478;-86
2023/02/27 04:03:54;;;;;;;10.03;9.23;;;-2.70;99.90;;;;;;4937421;29;20466;-83
2023/02/27 04:09:41;;;;;;;9.90;9.20;;;-2.60;99.90;;;;;;4937699;29;20458;-83
2023/02/27 04:12:29;;;;;;;10.20;9.27;;;-2.60;99.90;;;;;;4939439;29;20514;-84
2023/02/27 04:15:08;;;;;;;10.43;9.73;;;-2.60;99.90;;;;;;4931645;29;20460;-85
2023/02/27 04:17:46;;;;;;;10.50;9.80;;;-2.60;99.90;;;;;;4934820;29;20443;-81
2023/02/27 04:20:27;;;;;;;10.37;9.67;;;-2.60;99.90;;;;;;4930802;29;20455;-83
2023/02/27 04:22:59;;;;;;;10.67;9.60;;;-2.60;99.90;;;;;;4946147;29;20447;-86
2023/02/27 04:25:43;;;;;;;10.73;9.83;;;-2.60;99.90;;;;;;4947044;28;20452;-84
2023/02/27 04:28:17;;;;;;;10.20;9.50;;;-2.70;99.90;;;;;;4939700;29;20459;-86
2023/02/27 04:31:00;;;;;;;10.10;9.33;;;-2.70;99.90;;;;;;4949426;28;20909;-84
2023/02/27 04:33:35;;;;;;;10.37;9.67;;;-2.70;99.90;;;;;;4949863;29;20466;-79
2023/02/27 04:36:08;;;;;;;10.30;9.50;;;-2.70;99.90;;;;;;4943066;29;20500;-81
2023/02/27 04:38:39;;;;;;;10.40;9.50;;;-2.70;99.90;;;;;;4945365;29;20435;-79
2023/02/27 04:41:12;;;;;;;10.50;9.70;;;-2.70;99.90;;;;;;4932894;29;20505;-79
2023/02/27 04:43:41;;;;;;;9.77;8.97;;;-2.70;99.90;;;;;;4951331;29;20501;-79
2023/02/27 04:46:12;;;;;;;10.77;9.97;;;-2.70;99.90;;;;;;4959028;28;20434;-79
2023/02/27 04:48:43;;;;;;;11.47;10.40;;;-2.70;99.90;;;;;;4958856;28;20443;-78
2023/02/27 04:51:15;;;;;;;11.07;10.10;;;-2.70;99.90;;;;;;4951789;28;20520;-80
2023/02/27 04:53:48;;;;;;;10.70;9.90;;;-2.70;99.90;;;;;;4959248;29;20451;-78
2023/02/27 04:56:20;;;;;;;11.10;10.20;;;-2.70;99.90;;;;;;4948736;29;20526;-80
2023/02/27 04:58:50;;;;;;;11.87;10.87;;;-2.70;99.90;;;;;;4954096;29;20450;-79
2023/02/27 05:01:22;;;;;;;11.57;10.67;;;-2.70;99.90;;;;;;4959512;28;20563;-79
2023/02/27 05:03:54;;;;;;;10.67;9.97;;;-2.70;99.90;;;;;;4955480;29;20458;-79
2023/02/27 05:06:27;;;;;;;11.10;10.40;;;-2.70;99.90;;;;;;4953393;29;20575;-79
2023/02/27 05:09:02;;;;;;;11.47;10.43;;;-2.70;99.90;;;;;;4957960;28;20438;-79
2023/02/27 05:11:34;;;;;;;10.73;10.03;;;-2.70;99.90;;;;;;4951979;29;20497;-81
2023/02/27 05:14:07;;;;;;;11.40;10.43;;;-2.80;99.90;;;;;;4957726;29;20459;-81
2023/02/27 05:16:39;;;;;;;11.10;10.20;;;-2.80;99.90;;;;;;4957281;28;20476;-79
2023/02/27 05:19:07;;;;;;;10.53;9.80;;;-2.70;99.90;;;;;;4961294;29;20442;-79
2023/02/27 05:21:39;;;;;;;11.47;10.67;;;-2.70;99.90;;;;;;4958650;28;20474;-79
2023/02/27 05:24:14;;;;;;;10.97;10.17;;;-2.80;99.90;;;;;;4954629;29;20546;-79
2023/02/27 05:26:54;;;;;;;11.70;10.80;;;-2.80;99.90;;;;;;4955301;29;20469;-80
2023/02/27 05:29:28;;;;;;;11.07;10.07;;;-2.70;99.90;;;;;;4957283;28;20508;-81
2023/02/27 05:32:03;;;;;;;11.13;10.33;;;-2.70;99.90;;;;;;4954703;29;20485;-80
2023/02/27 05:34:36;;;;;;;11.70;10.70;;;-2.70;99.90;;;;;;4954784;29;20457;-79
2023/02/27 05:37:10;;;;;;;11.30;10.30;;;-2.80;99.90;;;;;;4956634;28;20896;-79
2023/02/27 05:39:40;;;;;;;11.60;10.40;;;-2.80;99.90;;;;;;4954675;29;20442;-78
2023/02/27 05:42:11;;;;;;;12.00;10.80;;;-2.80;99.90;;;;;;4957200;28;20458;-80
2023/02/27 05:44:43;;;;;;;12.37;11.27;;;-2.80;99.90;;;;;;4960944;28;20486;-80
2023/02/27 05:47:13;;;;;;;11.73;10.93;;;-2.80;99.90;;;;;;4947664;29;20443;-79
2023/02/27 05:49:43;;;;;;;12.73;11.43;;;-2.80;99.90;;;;;;4960473;29;20466;-78
2023/02/27 05:52:15;;;;;;;12.13;11.23;;;-2.80;99.90;;;;;;4955907;29;20470;-78
2023/02/27 05:54:48;;;;;;;11.73;10.83;;;-2.80;99.90;;;;;;4954843;29;20455;-79
2023/02/27 05:57:21;;;;;;;11.63;10.83;;;-2.90;99.90;;;;;;4958113;29;20478;-79
2023/02/27 05:59:54;;;;;;;12.10;11.07;;;-2.90;99.90;;;;;;4956382;29;20442;-78
2023/02/27 06:02:21;;;;;;;12.27;11.43;;;-2.90;99.90;;;;;;4952884;29;20482;-79
2023/02/27 06:04:48;;;;;;;12.10;11.10;;;-2.90;99.90;;;;;;4955560;29;20450;-78
2023/02/27 06:07:16;;;;;;;13.03;12.03;;;-2.90;99.90;;;;;;4960908;29;20531;-78
2023/02/27 06:09:44;;;;;;;12.20;11.30;;;-2.80;99.90;;;;;;4948721;29;20840;-79
2023/02/27 06:12:11;;;;;;;13.03;12.00;;;-2.80;99.90;;;;;;4949041;29;20489;-78
2023/02/27 06:14:38;;;;;;;12.17;11.27;;;-2.80;99.90;;;;;;4955943;29;20470;-79
2023/02/27 06:17:05;;;;;;;12.20;11.20;;;-2.80;99.90;;;;;;4957254;29;20549;-80
2023/02/27 06:19:32;;;;;;;11.70;10.90;;;-2.80;99.90;;;;;;4953587;29;20489;-79
2023/02/27 06:21:58;;;;;;;11.93;11.03;;;-2.80;99.90;;;;;;4947962;28;20532;-79
2023/02/27 06:24:27;;;;;;;12.93;11.70;;;-2.80;99.90;;;;;;4954132;29;20888;-80
2023/02/27 06:26:53;;;;;;;12.13;11.23;;;-2.90;99.90;;;;;;4952619;29;20495;-79
2023/02/27 06:29:20;;;;;;;12.80;11.90;;;-2.80;99.90;;;;;;4959323;28;20477;-78
2023/02/27 06:31:47;;;;;;;12.30;11.30;;;-2.80;99.90;;;;;;4956111;28;20487;-79
2023/02/27 06:34:14;;;;;;;12.70;11.80;;;-2.80;99.90;;;;;;4952568;29;20454;-79
2023/02/27 06:36:41;;;;;;;12.47;11.40;;;-2.80;99.90;;;;;;4957471;29;20502;-79
2023/02/27 06:39:09;;;;;;;12.03;11.03;;;-2.80;99.90;;;;;;4940543;29;20455;-80
2023/02/27 06:41:38;;;;;;;12.50;11.53;;;-2.80;99.90;;;;;;4957238;28;20494;-81
2023/02/27 06:44:05;;;;;;;12.80;11.70;;;-2.70;99.90;;;;;;4954683;29;20443;-80
2023/02/27 06:46:32;;;;;;;12.43;11.40;;;-2.70;99.90;;;;;;4951985;29;20448;-80
2023/02/27 06:48:59;;;;;;;12.47;11.40;;;-2.60;99.90;;;;;;4955196;29;20940;-81
2023/02/27 06:51:25;;;;;;;12.70;11.60;;;-2.50;99.90;;;;;;4955938;28;20482;-84
2023/02/27 06:53:52;;;;;;;13.27;12.17;;;-2.40;99.90;;;;;;4944256;29;20445;-79
2023/02/27 06:56:19;;;;;;;12.00;11.10;;;-2.40;99.90;;;;;;4955527;29;20478;-80
2023/02/27 06:58:47;;;;;;;12.47;11.47;;;-2.30;99.90;;;;;;4955064;29;20454;-79
2023/02/27 07:01:14;;;;;;;13.80;12.73;;;-2.10;99.90;;;;;;4959681;28;20548;-80
2023/02/27 07:03:41;;;;;;;13.00;11.83;;;-2.00;99.90;;;;;;4958911;29;20505;-79
2023/02/27 07:06:08;;;;;;;13.20;12.20;;;-1.90;99.90;;;;;;4957054;29;20439;-79
2023/02/27 07:08:35;;;;;;;10.83;9.83;;;-1.70;99.90;;;;;;4959044;29;20470;-80
2023/02/27 07:11:02;;;;;;;12.90;11.80;;;-1.70;99.90;;;;;;4961406;28;20454;-79
2023/02/27 07:13:29;;;;;;;12.40;11.50;;;-1.50;99.90;;;;;;4957456;29;20453;-79
2023/02/27 07:15:57;;;;;;;13.00;12.10;;;-1.30;99.90;;;;;;4953284;29;20478;-81
2023/02/27 07:18:24;;;;;;;13.40;12.20;;;-1.20;99.90;;;;;;4949386;28;20538;-80
2023/02/27 07:20:54;;;;;;;13.03;12.03;;;-1.00;99.90;;;;;;4952819;28;20490;-80
2023/02/27 07:23:21;;;;;;;13.40;12.27;;;-1.00;99.90;;;;;;4953927;28;20953;-80
2023/02/27 07:25:48;;;;;;;12.90;11.87;;;-0.80;99.90;;;;;;4948163;29;20506;-79
2023/02/27 07:28:15;;;;;;;12.80;11.90;;;-0.70;99.90;;;;;;4951019;29;20917;-80
2023/02/27 07:30:42;;;;;;;12.97;11.97;;;-0.60;99.90;;;;;;4958923;28;20465;-81
2023/02/27 07:33:11;;;;;;;13.10;12.20;;;-0.70;99.90;;;;;;4953336;29;20821;-81
2023/02/27 07:35:37;;;;;;;12.47;11.67;;;-0.80;99.90;;;;;;4955198;29;21046;-80
2023/02/27 07:38:04;;;;;;;12.63;11.60;;;-0.70;99.90;;;;;;4953137;28;20483;-80
2023/02/27 07:40:31;;;;;;;13.30;11.93;;;-0.80;99.90;;;;;;4948791;28;20459;-80
2023/02/27 07:42:58;;;;;;;12.90;11.83;;;-0.80;99.90;;;;;;4954029;29;20451;-80
2023/02/27 07:45:25;;;;;;;13.30;12.10;;;-0.80;99.90;;;;;;4956572;29;20461;-80
2023/02/27 07:47:51;;;;;;;14.63;12.80;;;-0.60;99.90;;;;;;4957071;29;20435;-80
2023/02/27 07:50:20;;;;;;;12.30;11.40;;;-0.50;99.90;;;;;;4951706;29;20444;-79
2023/02/27 07:52:46;;;;;;;12.87;11.67;;;-0.20;99.90;;;;;;4954850;28;20515;-80
2023/02/27 07:55:14;;;;;;;12.43;11.43;;;0.10;99.90;;;;;;4942743;28;20818;-84
2023/02/27 07:57:41;;;;;;;12.87;11.67;;;0.60;99.90;;;;;;4956374;29;20477;-85
2023/02/27 08:00:09;;;;;;;14.20;12.80;;;1.00;99.90;;;;;;4954020;29;20512;-85
2023/02/27 08:02:39;;;;;;;13.07;12.00;;;1.40;99.90;;;;;;4955738;28;20489;-85
2023/02/27 08:05:07;;;;;;;13.13;12.10;;;1.50;99.90;;;;;;4949180;29;20622;-86
2023/02/27 08:07:36;;;;;;;13.67;12.50;;;2.00;99.90;;;;;;4948269;29;20210;-85
2023/02/27 08:10:03;;;;;;;12.70;11.80;;;2.30;99.90;;;;;;4952746;29;20742;-86
2023/02/27 08:12:30;;;;;;;13.17;12.13;;;2.30;99.90;;;;;;4946069;28;20251;-85
2023/02/27 08:14:57;;;;;;;13.27;12.27;;;2.50;99.90;;;;;;4950612;29;20703;-85
2023/02/27 08:17:24;;;;;;;13.20;12.20;;;2.90;99.90;;;;;;4953775;28;20643;-85
2023/02/27 08:19:50;;;;;;;13.13;12.13;;;3.10;99.90;;;;;;4942537;29;20208;-80
2023/02/27 08:22:17;;;;;;;12.13;11.23;;;3.30;99.90;;;;;;4958269;28;20222;-82
2023/02/27 08:24:46;;;;;;;12.53;11.60;;;3.50;99.90;;;;;;4950567;29;20297;-80
2023/02/27 08:27:13;;;;;;;12.53;11.53;;;3.10;99.90;;;;;;4955428;29;20210;-80
2023/02/27 08:29:40;;;;;;;12.50;11.40;;;3.20;99.90;;;;;;4958786;29;20203;-81
2023/02/27 08:32:07;;;;;;;12.17;11.33;;;3.50;99.90;;;;;;4959192;28;20254;-81
2023/02/27 08:34:34;;;;;;;12.23;11.33;;;3.50;99.90;;;;;;4943965;29;20207;-79
2023/02/27 08:37:01;;;;;;;12.30;11.30;;;3.30;99.90;;;;;;4941573;29;20765;-78
2023/02/27 08:39:27;;;;;;;12.43;11.33;;;3.70;99.90;;;;;;4943358;29;20661;-84
2023/02/27 08:42:01;;;;;;;11.87;10.87;;;4.00;99.90;;;;;;4944416;29;20223;-84
2023/02/27 08:44:27;;;;;;;12.33;11.33;;;3.80;99.90;;;;;;4950537;29;20199;-84
2023/02/27 08:46:54;;;;;;;11.33;10.53;;;3.60;99.90;;;;;;4947988;29;20211;-85
2023/02/27 08:49:24;;;;;;;12.00;11.00;;;4.00;99.90;;;;;;4942585;29;20207;-86
2023/02/27 08:51:50;;;;;;;11.03;10.23;;;4.10;99.90;;;;;;4951211;28;20228;-84
2023/02/27 08:54:18;;;;;;;11.03;10.23;;;4.00;99.90;;;;;;4945592;29;20201;-83
2023/02/27 08:56:45;;;;;;;11.37;10.30;;;4.10;99.90;;;;;;4952857;29;20229;-85
2023/02/27 08:59:13;;;;;;;11.30;10.40;;;3.70;99.90;;;;;;4955751;29;20199;-84
2023/02/27 09:01:41;;;;;;;11.17;10.27;;;4.10;99.90;;;;;;4955017;28;20278;-84
2023/02/27 09:04:08;;;;;;;10.73;10.03;;;4.00;99.90;;;;;;4959759;28;20203;-83
2023/02/27 09:06:36;;;;;;;11.40;10.40;;;4.30;99.90;;;;;;4949118;29;20213;-85
2023/02/27 09:09:05;;;;;;;11.30;10.30;;;4.30;99.90;;;;;;4956601;28;20262;-84
2023/02/27 09:11:32;;;;;;;11.00;10.20;;;4.30;99.90;;;;;;4958850;28;20274;-83
2023/02/27 09:13:59;;;;;;;10.47;9.77;;;4.40;99.90;;;;;;4952084;29;20694;-81
2023/02/27 09:16:27;;;;;;;11.30;10.20;;;4.50;99.90;;;;;;4941754;29;20258;-80
2023/02/27 09:18:54;;;;;;;11.43;10.53;;;4.40;99.90;;;;;;4948333;29;20243;-79
2023/02/27 09:21:22;;;;;;;12.10;11.30;;;4.50;99.90;;;;;;4933096;29;20223;-79
2023/02/27 09:23:49;;;;;;;12.00;10.90;;;4.90;99.90;;;;;;4939643;28;20668;-79
2023/02/27 09:26:16;;;;;;;11.00;10.30;;;4.70;99.90;;;;;;4951589;29;20203;-80
2023/02/27 09:28:43;;;;;;;11.27;10.47;;;4.80;99.90;;;;;;4925800;29;20204;-79
2023/02/27 09:31:11;;;;;;;11.30;10.50;;;4.60;99.90;;;;;;4944744;28;20219;-80
2023/02/27 09:33:39;;;;;;;12.07;10.90;;;4.60;99.90;;;;;;4950003;29;20199;-80
2023/02/27 09:36:07;;;;;;;11.67;10.60;;;4.90;99.90;;;;;;4953537;29;20231;-79
2023/02/27 09:38:34;;;;;;;11.20;10.30;;;5.10;99.90;;;;;;4952883;28;20220;-79
2023/02/27 09:41:02;;;;;;;11.20;10.50;;;5.40;99.90;;;;;;4950509;28;20219;-84
2023/02/27 09:43:35;;;;;;;10.80;10.00;;;5.40;99.90;;;;;;4950051;29;20275;-80
2023/02/27 09:46:03;;;;;;;10.70;9.90;;;5.50;99.90;;;;;;4949559;29;20277;-80
2023/02/27 09:48:32;;;;;;;10.40;9.70;;;5.10;99.90;;;;;;4951503;29;20273;-80
2023/02/27 09:51:01;;;;;;;10.27;9.47;;;5.20;99.90;;;;;;4948077;28;20228;-79
2023/02/27 09:53:32;;;;;;;11.07;10.30;;;5.20;99.90;;;;;;4952189;29;20257;-79
2023/02/27 09:56:06;;;;;;;10.33;9.53;;;5.30;99.90;;;;;;4951031;29;20304;-80
2023/02/27 09:58:48;;;;;;;10.57;9.67;;;5.70;99.90;;;;;;4956944;28;20220;-81
2023/02/27 10:01:20;;;;;;;10.67;9.87;;;5.20;99.90;;;;;;4955846;28;20734;-80
2023/02/27 10:04:29;;;;;;;10.17;9.47;;;4.90;99.90;;;;;;4953926;28;20685;-80
2023/02/27 10:07:02;;;;;;;9.57;8.87;;;4.90;99.90;;;;;;4934222;29;20243;-81
2023/02/27 10:09:37;;;;;;;10.27;9.43;;;4.70;99.90;;;;;;4949175;28;20259;-81
2023/02/27 10:12:19;;;;;;;10.23;9.50;;;4.40;99.90;;;;;;4954709;28;20277;-80
2023/02/27 10:14:50;;;;;;;10.20;9.33;;;4.40;99.90;;;;;;4954672;28;20685;-80
2023/02/27 10:17:23;;;;;;;10.13;9.33;;;4.00;99.90;;;;;;4952933;29;20701;-81
2023/02/27 10:19:51;;;;;;;9.20;8.50;;;4.10;99.90;;;;;;4953321;29;20204;-79
2023/02/27 10:22:24;;;;;;;9.60;8.90;;;4.00;99.90;;;;;;4957773;28;20297;-80
2023/02/27 10:24:54;;;;;;;9.60;8.83;;;3.80;99.90;;;;;;4949697;29;20267;-80
2023/02/27 10:27:22;;;;;;;9.30;8.67;;;3.90;99.90;;;;;;4955040;29;20204;-81
2023/02/27 10:29:49;;;;;;;9.30;8.70;;;3.70;99.90;;;;;;4953474;28;20644;-80
2023/02/27 10:32:21;;;;;;;9.07;8.47;;;3.60;99.90;;;;;;4950625;28;20227;-80
2023/02/27 10:34:53;;;;;;;10.00;9.17;;;3.50;99.90;;;;;;4946006;29;20214;-80
2023/02/27 10:37:25;;;;;;;9.40;8.60;;;3.30;99.90;;;;;;4946797;29;20301;-81
2023/02/27 10:39:55;;;;;;;9.60;8.80;;;3.40;99.90;;;;;;4939927;28;20211;-80
2023/02/27 10:42:24;;;;;;;9.80;8.90;;;3.40;99.90;;;;;;4942034;29;20257;-81
2023/02/27 10:44:53;;;;;;;9.00;8.30;;;3.30;99.90;;;;;;4950698;29;20204;-78
2023/02/27 10:47:22;;;;;;;9.73;9.03;;;3.40;99.90;;;;;;4951180;29;20198;-80
2023/02/27 10:49:49;;;;;;;9.90;9.00;;;3.30;99.90;;;;;;4947452;29;20241;-79
2023/02/27 10:52:17;;;;;;;9.30;8.70;;;3.10;99.90;;;;;;4952971;28;20230;-79
2023/02/27 10:54:47;;;;;;;9.47;8.77;;;3.10;99.90;;;;;;4950050;29;20214;-80
2023/02/27 10:57:21;;;;;;;9.43;8.83;;;3.10;99.90;;;;;;4950154;28;20273;-81
2023/02/27 10:59:53;;;;;;;8.90;8.30;;;3.10;99.90;;;;;;4949215;29;20210;-80
2023/02/27 11:02:23;;;;;;;9.20;8.50;;;3.20;99.90;;;;;;4947980;28;20745;-79
2023/02/27 11:04:53;;;;;;;8.80;8.20;;;3.40;99.90;;;;;;4943807;28;20199;-82
2023/02/27 11:07:33;;;;;;;9.40;8.80;;;3.60;99.90;;;;;;4952339;29;20203;-82
2023/02/27 11:10:15;;;;;;;9.33;8.70;;;3.70;99.90;;;;;;4944939;28;20199;-82
2023/02/27 11:12:56;;;;;;;8.83;8.23;;;3.60;99.90;;;;;;4965077;28;20233;-82
2023/02/27 11:15:26;;;;;;;9.10;8.50;;;3.70;99.90;;;;;;4954968;29;20203;-81
2023/02/27 11:17:53;;;;;;;9.73;8.80;;;3.80;99.90;;;;;;4954634;29;20219;-81
2023/02/27 11:20:35;;;;;;;9.07;8.37;;;3.70;99.90;;;;;;4934790;28;20228;-82
2023/02/27 11:23:04;;;;;;;9.53;8.93;;;3.70;99.90;;;;;;4945154;29;20273;-83
2023/02/27 11:25:32;;;;;;;9.40;8.60;;;3.70;99.90;;;;;;4944633;28;20198;-83
2023/02/27 11:28:14;;;;;;;9.37;8.77;;;3.90;99.90;;;;;;4956506;28;20188;-79
2023/02/27 11:30:43;;;;;;;9.30;8.70;;;3.70;99.90;;;;;;4937390;29;20422;-81
2023/02/27 11:33:18;;;;;;;9.83;9.07;;;3.90;99.90;;;;;;4941614;29;20210;-81
2023/02/27 11:35:51;;;;;;;9.23;8.63;;;3.80;99.90;;;;;;4942631;29;20697;-82
2023/02/27 11:38:22;;;;;;;9.50;8.80;;;4.00;99.90;;;;;;4940482;29;20705;-82
2023/02/27 11:40:54;;;;;;;9.13;8.53;;;4.10;99.90;;;;;;4955142;28;20317;-84
2023/02/27 11:43:24;;;;;;;10.17;9.40;;;4.00;99.90;;;;;;4952107;28;20218;-82
2023/02/27 11:45:54;;;;;;;10.30;9.30;;;4.00;99.90;;;;;;4954906;29;20241;-81
2023/02/27 11:48:25;;;;;;;9.93;9.23;;;3.80;99.90;;;;;;4951538;29;20199;-82
2023/02/27 11:51:30;;;;;;;9.53;8.93;;;3.90;99.90;;;;;;4954782;28;20237;-82
2023/02/27 11:54:14;;;;;;;10.63;9.70;;;4.00;99.90;;;;;;4946371;28;20231;-82
2023/02/27 11:56:46;;;;;;;9.73;9.13;;;4.10;99.90;;;;;;4948027;29;20230;-82
2023/02/27 11:59:22;;;;;;;10.13;9.33;;;4.00;99.90;;;;;;4953193;28;20226;-81
2023/02/27 12:01:53;;;;;;;10.60;9.67;;;4.00;99.90;;;;;;4956136;28;20229;-83
2023/02/27 12:04:26;;;;;;;9.47;8.87;;;3.90;99.90;;;;;;4946802;28;20210;-83
2023/02/27 12:06:59;;;;;;;9.97;9.20;;;4.00;99.90;;;;;;4954900;29;20595;-81
2023/02/27 12:09:39;;;;;;;9.93;9.20;;;3.80;99.90;;;;;;4955885;29;20203;-82
2023/02/27 12:12:16;;;;;;;10.00;9.20;;;3.90;99.90;;;;;;4955147;28;20223;-83
2023/02/27 12:14:50;;;;;;;10.27;9.40;;;3.80;99.90;;;;;;4935992;29;20655;-83
2023/02/27 12:17:23;;;;;;;10.10;9.40;;;3.90;99.90;;;;;;4944933;29;20208;-81
2023/02/27 12:20:00;;;;;;;9.90;9.10;;;4.00;99.90;;;;;;4957949;28;20202;-83
2023/02/27 12:22:32;;;;;;;9.93;9.20;;;4.20;99.90;;;;;;4961268;28;20230;-82
2023/02/27 12:25:05;;;;;;;10.00;9.20;;;4.20;99.90;;;;;;4944444;29;20212;-82
2023/02/27 12:27:44;;;;;;;9.70;8.90;;;4.10;99.90;;;;;;4947545;28;20196;-82
2023/02/27 12:30:17;;;;;;;10.23;9.43;;;4.20;99.90;;;;;;4950650;29;20719;-80
2023/02/27 12:32:49;;;;;;;9.57;8.97;;;4.00;99.90;;;;;;4953978;29;20256;-81
2023/02/27 12:35:21;;;;;;;9.47;8.60;;;4.00;99.90;;;;;;4946445;29;20725;-81
2023/02/27 12:37:48;;;;;;;9.77;9.07;;;3.80;99.90;;;;;;4943936;29;20276;-82
2023/02/27 12:40:18;;;;;;;9.30;8.70;;;3.90;99.90;;;;;;4945680;29;20224;-81
2023/02/27 12:43:07;;;;;;;9.53;8.83;;;3.90;99.90;;;;;;4951671;28;20309;-83
2023/02/27 12:45:59;;;;;;;9.20;8.50;;;4.00;99.90;;;;;;4952203;29;20203;-81
2023/02/27 12:48:46;;;;;;;9.37;8.67;;;4.00;99.90;;;;;;4954369;29;20198;-81
2023/02/27 12:51:28;;;;;;;9.87;9.10;;;3.90;99.90;;;;;;4955470;28;20233;-80
2023/02/27 12:54:09;;;;;;;9.50;8.80;;;3.70;99.90;;;;;;4954685;28;20201;-81
2023/02/27 12:56:49;;;;;;;9.90;9.10;;;3.80;99.90;;;;;;4949890;28;20199;-82
2023/02/27 12:59:34;;;;;;;9.67;8.90;;;3.70;99.90;;;;;;4953141;29;20614;-81
2023/02/27 13:02:18;;;;;;;9.70;8.37;;;3.60;99.90;;;;;;4954063;28;20787;-80
2023/02/27 13:04:48;;;;;;;9.23;8.53;;;3.70;99.90;;;;;;4953249;29;20210;-79
2023/02/27 13:07:23;;;;;;;9.67;8.87;;;3.80;99.90;;;;;;4946163;29;20207;-81
2023/02/27 13:09:54;;;;;;;9.33;8.63;;;3.80;99.90;;;;;;4949107;28;20205;-81
2023/02/27 13:12:26;;;;;;;9.60;8.90;;;3.90;99.90;;;;;;4954436;28;20250;-81
2023/02/27 13:14:59;;;;;;;9.30;8.80;;;3.90;99.90;;;;;;4956313;28;20637;-81
2023/02/27 13:17:34;;;;;;;9.30;8.67;;;3.90;99.90;;;;;;4955874;29;20234;-79
2023/02/27 13:20:06;;;;;;;9.23;8.60;;;3.90;99.90;;;;;;4950420;29;20198;-80
2023/02/27 13:22:38;;;;;;;9.20;8.60;;;3.90;99.90;;;;;;4947343;28;20228;-81
2023/02/27 13:25:13;;;;;;;9.23;8.53;;;3.90;99.90;;;;;;4947176;29;20878;-80
2023/02/27 13:27:44;;;;;;;9.27;8.57;;;3.80;99.90;;;;;;4955530;28;20581;-80
2023/02/27 13:30:19;;;;;;;9.50;8.73;;;4.00;99.90;;;;;;4955973;29;20206;-79
2023/02/27 13:32:52;;;;;;;9.97;9.00;;;4.10;99.90;;;;;;4953418;28;20221;-80
2023/02/27 13:35:28;;;;;;;9.97;9.13;;;4.10;99.90;;;;;;4953337;28;20206;-81
2023/02/27 13:37:57;;;;;;;9.00;8.40;;;4.10;99.90;;;;;;4955985;28;20223;-79
2023/02/27 13:40:33;;;;;;;9.60;8.90;;;4.00;99.90;;;;;;4950555;28;20270;-80
2023/02/27 13:43:05;;;;;;;9.20;8.60;;;4.20;99.90;;;;;;4946932;29;20744;-81
2023/02/27 13:45:53;;;;;;;9.17;8.63;;;4.10;99.90;;;;;;4955595;29;20246;-80
2023/02/27 13:48:41;;;;;;;9.00;8.40;;;4.10;99.90;;;;;;4956337;29;20285;-80
2023/02/27 13:51:30;;;;;;;9.50;8.80;;;4.10;99.90;;;;;;4937219;29;20227;-80
2023/02/27 13:54:12;;;;;;;8.70;8.20;;;4.00;99.90;;;;;;4934615;29;20207;-81
2023/02/27 13:56:42;;;;;;;9.40;8.80;;;3.90;99.90;;;;;;4940288;29;20198;-80
2023/02/27 13:59:18;;;;;;;9.80;9.00;;;4.00;99.90;;;;;;4946053;29;20312;-85
2023/02/27 14:01:53;;;;;;;9.27;8.60;;;3.90;99.90;;;;;;4936691;29;20748;-84
2023/02/27 14:04:20;;;;;;;9.10;8.50;;;3.70;99.90;;;;;;4938597;29;20214;-85
2023/02/27 14:06:48;;;;;;;8.93;8.33;;;3.90;99.90;;;;;;4951144;29;20629;-85
2023/02/27 14:09:19;;;;;;;10.10;9.23;;;3.80;99.90;;;;;;4936203;29;20223;-89
2023/02/27 14:11:54;;;;;;;9.57;8.70;;;3.90;99.90;;;;;;4949642;28;20604;-79
2023/02/27 14:14:43;;;;;;;9.20;8.60;;;4.00;99.90;;;;;;4957171;29;20257;-79
2023/02/27 14:17:13;;;;;;;9.87;8.73;;;4.00;99.90;;;;;;4954339;29;20214;-78
2023/02/27 14:19:55;;;;;;;9.10;8.40;;;4.00;99.90;;;;;;4950493;29;20285;-78
2023/02/27 14:22:38;;;;;;;8.70;8.10;;;3.90;99.90;;;;;;4953882;28;20222;-80
2023/02/27 14:25:17;;;;;;;10.20;9.40;;;4.00;99.90;;;;;;4950093;28;20453;-84
2023/02/27 14:27:51;;;;;;;9.50;8.90;;;3.90;99.90;;;;;;4938838;29;20187;-85
2023/02/27 14:30:35;;;;;;;11.30;9.07;;;3.90;99.90;;;;;;4947639;29;20665;-84
2023/02/27 14:33:13;;;;;;;9.70;8.90;;;3.80;99.90;;;;;;4946111;29;20670;-84
2023/02/27 14:35:45;;;;;;;9.80;8.90;;;3.80;99.90;;;;;;4938488;29;20199;-86
2023/02/27 14:38:16;;;;;;;9.60;8.90;;;3.70;99.90;;;;;;4936177;29;20586;-85
2023/02/27 14:41:00;;;;;;;8.90;8.30;;;3.70;99.90;;;;;;4929941;29;20741;-84
2023/02/27 14:43:34;;;;;;;9.97;9.13;;;3.70;99.90;;;;;;4934641;29;20204;-82
2023/02/27 14:46:10;;;;;;;9.00;8.40;;;3.60;99.90;;;;;;4937444;29;20233;-84
2023/02/27 14:48:39;;;;;;;9.13;8.60;;;3.70;99.90;;;;;;4940775;29;20211;-83
2023/02/27 14:51:07;;;;;;;9.70;9.00;;;3.70;99.90;;;;;;4940001;29;20264;-79
2023/02/27 14:53:35;;;;;;;9.80;9.00;;;3.90;99.90;;;;;;4947042;29;20262;-79
2023/02/27 14:56:01;;;;;;;9.67;8.87;;;3.60;99.90;;;;;;4944164;29;20195;-79
2023/02/27 14:58:28;;;;;;;9.97;9.13;;;3.70;99.90;;;;;;4944439;29;20215;-78
2023/02/27 15:01:06;;;;;;;9.23;8.50;;;3.60;99.90;;;;;;4943037;29;20239;-78
2023/02/27 15:03:40;;;;;;;9.83;9.07;;;3.50;99.90;;;;;;4944371;29;20585;-78
2023/02/27 15:06:16;;;;;;;9.03;8.30;;;3.30;99.90;;;;;;4942008;29;20198;-77
2023/02/27 15:08:47;;;;;;;8.83;8.20;;;3.30;99.90;;;;;;4952409;28;20203;-78
2023/02/27 15:11:16;;;;;;;9.70;8.87;;;3.20;99.90;;;;;;4935834;29;20725;-79
2023/02/27 15:13:44;;;;;;;9.47;8.77;;;3.10;99.90;;;;;;4939501;29;20243;-79
2023/02/27 15:16:37;;;;;;;9.10;8.50;;;3.10;99.90;;;;;;4942539;29;20266;-80
2023/02/27 15:19:15;;;;;;;9.60;8.80;;;3.00;99.90;;;;;;4947595;29;20221;-79
2023/02/27 15:21:45;;;;;;;9.60;8.70;;;2.90;99.90;;;;;;4948797;29;20318;-80
2023/02/27 15:24:24;;;;;;;9.67;8.80;;;2.80;99.90;;;;;;4949384;29;20215;-80
2023/02/27 15:26:54;;;;;;;9.33;8.53;;;2.70;99.90;;;;;;4948405;29;20570;-80
2023/02/27 15:29:27;;;;;;;9.30;8.60;;;2.60;99.90;;;;;;4951138;29;20227;-78
2023/02/27 15:31:54;;;;;;;9.10;8.40;;;2.70;99.90;;;;;;4942026;29;20278;-84
2023/02/27 15:34:22;;;;;;;9.43;8.53;;;2.70;99.90;;;;;;4944235;29;20212;-82
2023/02/27 15:36:52;;;;;;;8.67;8.07;;;2.60;99.90;;;;;;4940290;29;20200;-85
2023/02/27 15:39:21;;;;;;;9.20;8.50;;;2.60;99.90;;;;;;4942483;29;20215;-85
2023/02/27 15:41:50;;;;;;;9.00;8.30;;;2.60;99.90;;;;;;4948521;29;20713;-86
2023/02/27 15:44:19;;;;;;;9.37;8.63;;;2.60;99.90;;;;;;4940665;29;20580;-84
2023/02/27 15:46:47;;;;;;;9.50;8.70;;;2.50;99.90;;;;;;4935338;29;20203;-80
2023/02/27 15:49:18;;;;;;;9.70;8.60;;;2.60;99.90;;;;;;4946644;29;20199;-78
2023/02/27 15:51:58;;;;;;;9.10;8.50;;;2.50;99.90;;;;;;4943061;29;20577;-79
2023/02/27 15:54:26;;;;;;;9.67;8.87;;;2.50;99.90;;;;;;4944206;29;20286;-78
2023/02/27 15:56:53;;;;;;;9.43;8.70;;;2.50;99.90;;;;;;4948210;29;20207;-78
2023/02/27 15:59:20;;;;;;;9.30;8.57;;;2.40;99.90;;;;;;4939973;29;20251;-78
2023/02/27 16:01:49;;;;;;;9.57;8.63;;;2.30;99.90;;;;;;4933214;29;20235;-79
2023/02/27 16:04:23;;;;;;;9.30;8.50;;;2.20;99.90;;;;;;4946311;29;20213;-78
2023/02/27 16:06:59;;;;;;;9.77;8.77;;;2.20;99.90;;;;;;4947968;29;20198;-79
2023/02/27 16:09:30;;;;;;;9.20;8.50;;;2.20;99.90;;;;;;4947311;29;20195;-78